createdAt,value
2023-05-04T05:00:50.316Z,1009.13
2023-05-04T05:01:50.041Z,1009.11
2023-05-04T05:02:50.083Z,1009.05
2023-05-04T05:03:50.041Z,1009.13
2023-05-04T05:04:50.105Z,1009.17
2023-05-04T05:05:50.005Z,1009.14
2023-05-04T05:06:50.001Z,1009.17
2023-05-04T05:07:49.971Z,1009.13
2023-05-04T05:08:49.960Z,1009.18
2023-05-04T05:09:49.962Z,1009.10
2023-05-04T05:10:49.946Z,1009.15
2023-05-04T05:11:54.967Z,1009.09
2023-05-04T05:12:49.975Z,1009.15
2023-05-04T05:13:49.903Z,1009.16
2023-05-04T05:14:49.911Z,1009.14
2023-05-04T05:15:49.888Z,1009.14
2023-05-04T05:16:49.918Z,1009.12
2023-05-04T05:17:49.899Z,1009.08
2023-05-04T05:18:49.847Z,1009.15
2023-05-04T05:19:49.835Z,1009.16
2023-05-04T05:20:49.931Z,1009.17
2023-05-04T05:21:49.812Z,1009.16
2023-05-04T05:22:54.822Z,1009.25
2023-05-04T05:23:49.820Z,1009.15
2023-05-04T05:24:49.794Z,1009.17
2023-05-04T05:25:49.780Z,1009.20
2023-05-04T05:26:49.760Z,1009.19
2023-05-04T05:27:49.753Z,1009.12
2023-05-04T05:28:49.738Z,1009.17
2023-05-04T05:29:49.721Z,1009.14
2023-05-04T05:30:49.758Z,1009.23
2023-05-04T05:31:49.701Z,1009.14
2023-05-04T05:32:49.860Z,1009.18
2023-05-04T05:33:54.698Z,1009.17
2023-05-04T05:34:49.663Z,1009.13
2023-05-04T05:35:49.659Z,1009.15
2023-05-04T05:36:49.661Z,1009.23
2023-05-04T05:37:49.635Z,1009.28
2023-05-04T05:38:50.340Z,1009.30
2023-05-04T05:39:49.618Z,1009.17
2023-05-04T05:40:49.610Z,1009.26
2023-05-04T05:41:49.587Z,1009.26
2023-05-04T05:42:49.580Z,1009.25
2023-05-04T05:43:49.577Z,1009.30
2023-05-04T05:44:54.615Z,1009.21
2023-05-04T05:45:49.598Z,1009.22
2023-05-04T05:46:49.538Z,1009.18
2023-05-04T05:47:49.548Z,1009.14
2023-05-04T05:48:49.542Z,1009.20
2023-05-04T05:49:49.499Z,1009.19
2023-05-04T05:50:49.516Z,1009.19
2023-05-04T05:51:49.472Z,1009.15
2023-05-04T05:52:49.464Z,1009.21
2023-05-04T05:53:49.457Z,1009.17
2023-05-04T05:54:49.449Z,1009.21
2023-05-04T05:55:54.485Z,1009.15
2023-05-04T05:56:49.438Z,1009.18
2023-05-04T05:57:49.406Z,1009.20
2023-05-04T05:58:49.390Z,1009.23
2023-05-04T05:59:49.380Z,1009.24
2023-05-04T06:00:49.388Z,1009.16
2023-05-04T06:01:49.359Z,1009.16
2023-05-04T06:02:49.446Z,1009.16
2023-05-04T06:03:49.543Z,1009.16
2023-05-04T06:04:49.400Z,1009.19
2023-05-04T06:05:49.322Z,1009.19
2023-05-04T06:06:54.335Z,1009.24
2023-05-04T06:07:49.288Z,1009.17
2023-05-04T06:08:49.296Z,1009.17
2023-05-04T06:09:49.266Z,1009.17
2023-05-04T06:10:49.269Z,1009.17
2023-05-04T06:11:49.247Z,1009.16
2023-05-04T06:12:49.297Z,1009.16
2023-05-04T06:13:49.220Z,1009.09
2023-05-04T06:14:49.227Z,1009.14
2023-05-04T06:15:49.226Z,1009.09
2023-05-04T06:16:49.227Z,1009.05
2023-05-04T06:17:54.226Z,1009.16
2023-05-04T06:18:49.167Z,1009.16
2023-05-04T06:19:50.903Z,1009.12
2023-05-04T06:20:49.181Z,1009.10
2023-05-04T06:21:49.142Z,1009.01
2023-05-04T06:22:49.120Z,1009.05
2023-05-04T06:23:49.107Z,1009.08
2023-05-04T06:24:49.099Z,1009.04
2023-05-04T06:25:49.090Z,1009.11
2023-05-04T06:26:49.105Z,1009.14
2023-05-04T06:27:49.062Z,1009.08
2023-05-04T06:28:54.082Z,1009.15
2023-05-04T06:29:49.038Z,1009.10
2023-05-04T06:30:49.024Z,1009.06
2023-05-04T06:31:49.058Z,1009.10
2023-05-04T06:32:49.054Z,1009.07
2023-05-04T06:33:48.992Z,1009.09
2023-05-04T06:34:48.981Z,1009.19
2023-05-04T06:35:48.965Z,1009.14
2023-05-04T06:36:48.991Z,1009.12
2023-05-04T06:38:48.949Z,1009.10
2023-05-04T06:39:53.959Z,1009.11
2023-05-04T06:40:48.914Z,1009.09
2023-05-04T06:41:48.908Z,1009.05
2023-05-04T06:42:48.888Z,1009.05
2023-05-04T06:43:48.879Z,1009.11
2023-05-04T06:44:48.889Z,1009.03
2023-05-04T06:45:48.904Z,1009.09
2023-05-04T06:46:48.862Z,1009.09
2023-05-04T06:47:48.872Z,1009.10
2023-05-04T06:48:48.820Z,1009.12
2023-05-04T06:49:48.804Z,1009.10
2023-05-04T06:50:53.833Z,1009.11
2023-05-04T06:51:48.799Z,1009.10
2023-05-04T06:52:48.818Z,1009.09
2023-05-04T06:53:48.769Z,1009.12
2023-05-04T06:54:48.756Z,1009.12
2023-05-04T06:55:48.750Z,1009.06
2023-05-04T06:56:48.745Z,1009.12
2023-05-04T06:57:48.723Z,1009.11
2023-05-04T06:58:48.710Z,1009.13
2023-05-04T06:59:48.695Z,1009.09
2023-05-04T07:00:48.727Z,1009.13
2023-05-04T07:01:53.697Z,1009.08
2023-05-04T07:02:48.691Z,1009.08
2023-05-04T07:03:48.675Z,1009.14
2023-05-04T07:04:48.640Z,1009.19
2023-05-04T07:05:48.678Z,1009.13
2023-05-04T07:06:48.619Z,1009.13
2023-05-04T07:07:51.089Z,1009.15
2023-05-04T07:08:48.646Z,1009.18
2023-05-04T07:09:48.588Z,1009.09
2023-05-04T07:10:48.579Z,1009.12
2023-05-04T07:11:48.614Z,1009.16
2023-05-04T07:12:53.599Z,1009.16
2023-05-04T07:13:48.540Z,1009.12
2023-05-04T07:14:48.552Z,1009.06
2023-05-04T07:15:48.536Z,1009.15
2023-05-04T07:16:48.627Z,1009.11
2023-05-04T07:17:48.526Z,1009.11
2023-05-04T07:18:48.480Z,1009.06
2023-05-04T07:19:48.467Z,1009.06
2023-05-04T07:20:48.471Z,1009.08
2023-05-04T07:21:48.500Z,1009.10
2023-05-04T07:22:48.434Z,1009.07
2023-05-04T07:23:53.539Z,1009.00
2023-05-04T07:24:48.438Z,1009.09
2023-05-04T07:25:48.422Z,1009.08
2023-05-04T07:26:48.391Z,1008.96
2023-05-04T07:27:48.404Z,1009.01
2023-05-04T07:28:48.369Z,1008.95
2023-05-04T07:29:48.361Z,1008.95
2023-05-04T07:30:48.359Z,1008.96
2023-05-04T07:31:48.360Z,1008.95
2023-05-04T07:32:48.357Z,1009.01
2023-05-04T07:33:48.323Z,1008.93
2023-05-04T07:34:53.321Z,1008.92
2023-05-04T07:35:48.303Z,1008.88
2023-05-04T07:36:48.282Z,1008.94
2023-05-04T07:37:48.266Z,1008.90
2023-05-04T07:38:48.262Z,1008.91
2023-05-04T07:39:48.299Z,1008.91
2023-05-04T07:40:48.241Z,1008.96
2023-05-04T07:41:49.682Z,1008.94
2023-05-04T07:42:48.237Z,1008.89
2023-05-04T07:43:48.192Z,1008.89
2023-05-04T07:44:48.207Z,1008.90
2023-05-04T07:45:53.241Z,1008.94
2023-05-04T07:46:48.160Z,1008.90
2023-05-04T07:47:48.168Z,1008.90
2023-05-04T07:48:48.139Z,1008.90
2023-05-04T07:49:48.139Z,1008.90
2023-05-04T07:50:48.113Z,1008.87
2023-05-04T07:51:48.126Z,1008.82
2023-05-04T07:52:48.097Z,1008.90
2023-05-04T07:53:48.077Z,1008.93
2023-05-04T07:54:48.077Z,1008.87
2023-05-04T07:55:48.380Z,1008.82
2023-05-04T07:56:53.072Z,1008.88
2023-05-04T07:57:48.064Z,1008.86
2023-05-04T07:58:48.030Z,1008.90
2023-05-04T07:59:48.026Z,1008.69
2023-05-04T08:00:48.003Z,1008.72
2023-05-04T08:01:48.021Z,1008.77
2023-05-04T08:02:48.077Z,1008.73
2023-05-04T08:03:48.005Z,1008.72
2023-05-04T08:04:47.955Z,1008.82
2023-05-04T08:05:47.955Z,1008.70
2023-05-04T08:06:47.932Z,1008.81
2023-05-04T08:07:52.943Z,1008.83
2023-05-04T08:08:47.915Z,1008.70
2023-05-04T08:09:47.938Z,1008.57
2023-05-04T08:10:47.931Z,1008.66
2023-05-04T08:11:48.285Z,1008.62
2023-05-04T08:12:47.920Z,1008.62
2023-05-04T08:13:47.862Z,1008.65
2023-05-04T08:14:47.859Z,1008.67
2023-05-04T08:15:47.838Z,1008.62
2023-05-04T08:16:47.865Z,1008.45
2023-05-04T08:17:47.821Z,1008.56
2023-05-04T08:18:52.833Z,1008.66
2023-05-04T08:19:47.806Z,1008.65
2023-05-04T08:20:47.809Z,1008.63
2023-05-04T08:21:47.770Z,1008.55
2023-05-04T08:22:47.776Z,1008.45
2023-05-04T08:23:47.743Z,1008.52
2023-05-04T08:24:47.740Z,1008.57
2023-05-04T08:25:47.737Z,1008.51
2023-05-04T08:26:59.729Z,1008.41
2023-05-04T08:27:47.749Z,1008.54
2023-05-04T08:28:47.713Z,1008.52
2023-05-04T08:29:47.682Z,1008.45
2023-05-04T08:30:47.678Z,1008.44
2023-05-04T08:31:52.721Z,1008.50
2023-05-04T08:32:47.703Z,1008.44
2023-05-04T08:33:47.640Z,1008.44
2023-05-04T08:34:47.647Z,1008.42
2023-05-04T08:35:47.611Z,1008.39
2023-05-04T08:36:47.627Z,1008.35
2023-05-04T08:37:47.591Z,1008.31
2023-05-04T08:38:47.586Z,1008.39
2023-05-04T08:39:47.584Z,1008.39
2023-05-04T08:40:49.973Z,1008.33
2023-05-04T08:41:47.555Z,1008.31
2023-05-04T08:42:52.674Z,1008.33
2023-05-04T08:43:47.538Z,1008.29
2023-05-04T08:44:47.526Z,1008.36
2023-05-04T08:45:47.551Z,1008.36
2023-05-04T08:46:47.509Z,1008.33
2023-05-04T08:47:47.528Z,1008.35
2023-05-04T08:48:47.489Z,1008.28
2023-05-04T08:49:47.465Z,1008.30
2023-05-04T08:50:47.451Z,1008.35
2023-05-04T08:51:47.446Z,1008.31
2023-05-04T08:52:47.446Z,1008.31
2023-05-04T08:53:52.503Z,1008.30
2023-05-04T08:54:47.413Z,1008.32
2023-05-04T08:55:47.393Z,1008.25
2023-05-04T08:56:47.394Z,1008.24
2023-05-04T08:57:48.581Z,1008.21
2023-05-04T08:58:47.413Z,1008.26
2023-05-04T08:59:47.368Z,1008.21
2023-05-04T09:00:47.381Z,1008.25
2023-05-04T09:01:47.355Z,1008.24
2023-05-04T09:02:47.452Z,1008.24
2023-05-04T09:03:47.436Z,1008.30
2023-05-04T09:04:52.312Z,1008.24
2023-05-04T09:05:47.297Z,1008.29
2023-05-04T09:06:47.272Z,1008.24
2023-05-04T09:07:47.266Z,1008.21
2023-05-04T09:08:47.252Z,1008.21
2023-05-04T09:09:47.244Z,1008.13
2023-05-04T09:10:47.226Z,1008.21
2023-05-04T09:11:47.235Z,1008.08
2023-05-04T09:12:47.244Z,1008.08
2023-05-04T09:13:47.192Z,1008.08
2023-05-04T09:14:47.202Z,1008.12
2023-05-04T09:15:52.192Z,1008.05
2023-05-04T09:16:47.223Z,1008.10
2023-05-04T09:17:56.921Z,1008.19
2023-05-04T09:18:47.131Z,1008.07
2023-05-04T09:19:47.126Z,1008.01
2023-05-04T09:20:47.146Z,1008.07
2023-05-04T09:21:47.128Z,1008.03
2023-05-04T09:22:47.102Z,1008.00
2023-05-04T09:23:47.159Z,1007.96
2023-05-04T09:24:47.060Z,1008.02
2023-05-04T09:25:47.055Z,1008.06
2023-05-04T09:26:52.076Z,1007.99
2023-05-04T09:27:47.031Z,1008.04
2023-05-04T09:28:47.016Z,1008.02
2023-05-04T09:29:47.082Z,1008.06
2023-05-04T09:30:47.172Z,1008.02
2023-05-04T09:31:47.000Z,1007.95
2023-05-04T09:32:47.014Z,1008.00
2023-05-04T09:33:46.986Z,1008.10
2023-05-04T09:34:46.948Z,1008.04
2023-05-04T09:35:46.984Z,1007.95
2023-05-04T09:36:46.966Z,1008.01
2023-05-04T09:37:51.958Z,1008.03
2023-05-04T09:38:46.935Z,1007.93
2023-05-04T09:39:46.897Z,1007.92
2023-05-04T09:40:46.891Z,1007.90
2023-05-04T09:41:46.889Z,1008.06
2023-05-04T09:42:46.860Z,1007.98
2023-05-04T09:43:46.870Z,1007.83
2023-05-04T09:44:46.846Z,1007.92
2023-05-04T09:45:46.835Z,1007.90
2023-05-04T09:46:47.000Z,1007.88
2023-05-04T09:47:46.868Z,1007.81
2023-05-04T09:48:51.816Z,1007.80
2023-05-04T09:49:46.793Z,1007.78
2023-05-04T09:50:46.789Z,1007.79
2023-05-04T09:51:46.766Z,1007.76
2023-05-04T09:52:46.746Z,1007.77
2023-05-04T09:53:46.757Z,1007.77
2023-05-04T09:54:46.732Z,1007.82
2023-05-04T09:55:46.722Z,1007.87
2023-05-04T09:56:46.701Z,1007.87
2023-05-04T09:57:46.689Z,1007.79
2023-05-04T09:58:46.689Z,1007.82
2023-05-04T09:59:51.705Z,1007.73
2023-05-04T10:00:46.668Z,1007.73
2023-05-04T10:01:46.676Z,1007.75
2023-05-04T10:02:46.916Z,1007.82
2023-05-04T10:03:46.637Z,1007.82
2023-05-04T10:04:46.642Z,1007.80
2023-05-04T10:05:46.645Z,1007.75
2023-05-04T10:06:46.591Z,1007.72
2023-05-04T10:07:46.618Z,1007.72
2023-05-04T10:08:46.577Z,1007.77
2023-05-04T10:09:46.569Z,1007.79
2023-05-04T10:10:51.623Z,1007.71
2023-05-04T10:11:46.537Z,1007.78
2023-05-04T10:12:46.543Z,1007.77
2023-05-04T10:13:46.521Z,1007.70
2023-05-04T10:14:46.506Z,1007.64
2023-05-04T10:15:46.536Z,1007.68
2023-05-04T10:16:46.491Z,1007.78
2023-05-04T10:17:46.516Z,1007.78
2023-05-04T10:18:46.541Z,1007.88
2023-05-04T10:19:46.446Z,1007.92
2023-05-04T10:20:46.433Z,1007.87
2023-05-04T10:21:51.443Z,1007.85
2023-05-04T10:22:46.431Z,1007.82
2023-05-04T10:23:46.405Z,1007.79
2023-05-04T10:24:46.388Z,1007.66
2023-05-04T10:25:46.381Z,1007.69
2023-05-04T10:26:46.365Z,1007.76
2023-05-04T10:27:46.358Z,1007.78
2023-05-04T10:28:46.382Z,1007.76
2023-05-04T10:29:46.332Z,1007.79
2023-05-04T10:30:46.318Z,1007.72
2023-05-04T10:31:46.369Z,1007.71
2023-05-04T10:32:51.376Z,1007.74
2023-05-04T10:33:46.298Z,1007.62
2023-05-04T10:34:46.324Z,1007.67
2023-05-04T10:35:46.267Z,1007.63
2023-05-04T10:36:46.248Z,1007.65
2023-05-04T10:37:46.263Z,1007.59
2023-05-04T10:38:46.229Z,1007.60
2023-05-04T10:39:46.224Z,1007.51
2023-05-04T10:40:46.209Z,1007.59
2023-05-04T10:41:46.226Z,1007.54
2023-05-04T10:42:46.204Z,1007.51
2023-05-04T10:43:51.198Z,1007.46
2023-05-04T10:44:46.161Z,1007.58
2023-05-04T10:45:46.194Z,1007.55
2023-05-04T10:46:46.177Z,1007.47
2023-05-04T10:47:46.245Z,1007.53
2023-05-04T10:48:46.137Z,1007.54
2023-05-04T10:49:46.115Z,1007.48
2023-05-04T10:50:46.124Z,1007.41
2023-05-04T10:51:49.347Z,1007.42
2023-05-04T10:52:46.072Z,1007.43
2023-05-04T10:53:46.096Z,1007.37
2023-05-04T10:54:51.073Z,1007.24
2023-05-04T10:55:46.050Z,1007.32
2023-05-04T10:56:46.045Z,1007.29
2023-05-04T10:57:46.037Z,1007.28
2023-05-04T10:58:46.008Z,1007.32
2023-05-04T10:59:46.021Z,1007.28
2023-05-04T11:00:45.999Z,1007.27
2023-05-04T11:01:46.043Z,1007.27
2023-05-04T11:02:46.049Z,1007.26
2023-05-04T11:03:45.978Z,1007.22
2023-05-04T11:04:45.938Z,1007.21
2023-05-04T11:05:51.001Z,1007.20
2023-05-04T11:06:45.925Z,1007.10
2023-05-04T11:07:45.906Z,1007.10
2023-05-04T11:08:45.905Z,1007.04
2023-05-04T11:09:45.905Z,1007.14
2023-05-04T11:10:45.896Z,1007.05
2023-05-04T11:11:45.878Z,1007.02
2023-05-04T11:12:45.923Z,1007.09
2023-05-04T11:13:45.841Z,1007.04
2023-05-04T11:14:45.842Z,1006.95
2023-05-04T11:15:45.829Z,1006.99
2023-05-04T11:16:50.858Z,1007.02
2023-05-04T11:17:45.863Z,1007.02
2023-05-04T11:18:45.795Z,1007.06
2023-05-04T11:19:45.781Z,1007.08
2023-05-04T11:20:45.762Z,1007.00
2023-05-04T11:21:45.827Z,1006.95
2023-05-04T11:22:45.748Z,1006.86
2023-05-04T11:23:45.743Z,1006.88
2023-05-04T11:24:45.725Z,1006.82
2023-05-04T11:25:45.716Z,1006.84
2023-05-04T11:26:45.694Z,1006.88
2023-05-04T11:27:50.713Z,1006.95
2023-05-04T11:28:45.703Z,1006.88
2023-05-04T11:29:45.720Z,1006.85
2023-05-04T11:30:45.650Z,1006.86
2023-05-04T11:31:45.657Z,1006.82
2023-05-04T11:32:45.676Z,1006.82
2023-05-04T11:33:45.625Z,1006.78
2023-05-04T11:34:45.604Z,1006.76
2023-05-04T11:35:45.622Z,1006.79
2023-05-04T11:36:45.585Z,1006.81
2023-05-04T11:37:45.598Z,1006.80
2023-05-04T11:38:45.574Z,1006.74
2023-05-04T11:39:45.554Z,1006.69
2023-05-04T11:40:50.634Z,1006.73
2023-05-04T11:41:45.554Z,1006.74
2023-05-04T11:42:45.539Z,1006.71
2023-05-04T11:43:45.515Z,1006.72
2023-05-04T11:44:45.492Z,1006.77
2023-05-04T11:45:45.482Z,1006.77
2023-05-04T11:46:45.521Z,1006.79
2023-05-04T11:47:45.525Z,1006.86
2023-05-04T11:48:45.465Z,1006.85
2023-05-04T11:49:45.440Z,1006.79
2023-05-04T11:50:45.427Z,1006.85
2023-05-04T11:51:45.418Z,1006.76
2023-05-04T11:52:45.457Z,1006.83
2023-05-04T11:53:50.438Z,1006.80
2023-05-04T11:54:45.408Z,1006.69
2023-05-04T11:55:45.400Z,1006.77
2023-05-04T11:56:45.361Z,1006.74
2023-05-04T11:57:45.360Z,1006.72
2023-05-04T11:58:45.365Z,1006.74
2023-05-04T11:59:45.397Z,1006.69
2023-05-04T12:00:45.319Z,1006.74
2023-05-04T12:01:45.306Z,1006.63
2023-05-04T12:02:45.389Z,1006.78
2023-05-04T12:03:53.799Z,1006.70
2023-05-04T12:04:45.297Z,1006.68
2023-05-04T12:05:45.300Z,1006.70
2023-05-04T12:06:50.288Z,1006.71
2023-05-04T12:07:45.313Z,1006.71
2023-05-04T12:08:45.260Z,1006.64
2023-05-04T12:09:45.250Z,1006.66
2023-05-04T12:10:45.244Z,1006.60
2023-05-04T12:11:45.215Z,1006.64
2023-05-04T12:12:45.212Z,1006.60
2023-05-04T12:13:45.189Z,1006.56
2023-05-04T12:14:45.167Z,1006.53
2023-05-04T12:15:45.171Z,1006.55
2023-05-04T12:16:45.211Z,1006.56
2023-05-04T12:17:45.170Z,1006.55
2023-05-04T12:18:45.138Z,1006.54
2023-05-04T12:19:50.135Z,1006.57
2023-05-04T12:20:45.101Z,1006.53
2023-05-04T12:21:45.103Z,1006.53
2023-05-04T12:22:45.119Z,1006.50
2023-05-04T12:23:45.096Z,1006.50
2023-05-04T12:24:45.068Z,1006.51
2023-05-04T12:25:57.302Z,1006.46
2023-05-04T12:26:46.048Z,1006.46
2023-05-04T12:27:45.038Z,1006.36
2023-05-04T12:28:45.067Z,1006.45
2023-05-04T12:29:45.007Z,1006.47
2023-05-04T12:30:50.023Z,1006.43
2023-05-04T12:31:45.052Z,1006.25
2023-05-04T12:32:45.001Z,1006.16
2023-05-04T12:33:44.965Z,1006.24
2023-05-04T12:34:44.979Z,1006.13
2023-05-04T12:35:44.952Z,1006.21
2023-05-04T12:36:44.940Z,1006.22
2023-05-04T12:37:44.920Z,1006.11
2023-05-04T12:38:44.914Z,1006.21
2023-05-04T12:39:44.906Z,1006.15
2023-05-04T12:40:44.930Z,1006.11
2023-05-04T12:41:49.927Z,1006.09
2023-05-04T12:42:44.871Z,1006.10
2023-05-04T12:43:44.854Z,1006.04
2023-05-04T12:44:44.848Z,1006.17
2023-05-04T12:45:44.859Z,1006.12
2023-05-04T12:46:44.828Z,1006.07
2023-05-04T12:47:44.835Z,1006.11
2023-05-04T12:48:44.794Z,1006.06
2023-05-04T12:49:44.797Z,1006.09
2023-05-04T12:50:44.776Z,1006.03
2023-05-04T12:51:44.760Z,1006.09
2023-05-04T12:52:49.799Z,1006.02
2023-05-04T12:53:44.773Z,1006.04
2023-05-04T12:54:44.760Z,1006.07
2023-05-04T12:55:44.716Z,1006.00
2023-05-04T12:56:44.707Z,1005.98
2023-05-04T12:57:44.735Z,1005.94
2023-05-04T12:58:44.734Z,1005.95
2023-05-04T12:59:44.683Z,1005.94
2023-05-04T13:00:46.144Z,1005.84
2023-05-04T13:01:44.750Z,1005.84
2023-05-04T13:02:44.711Z,1005.79
2023-05-04T13:03:44.763Z,1005.83
2023-05-04T13:04:44.636Z,1005.81
2023-05-04T13:05:49.667Z,1005.88
2023-05-04T13:06:46.298Z,1005.92
2023-05-04T13:07:44.595Z,1005.90
2023-05-04T13:08:44.582Z,1005.83
2023-05-04T13:09:44.568Z,1005.81
2023-05-04T13:10:44.565Z,1005.70
2023-05-04T13:11:44.541Z,1005.76
2023-05-04T13:12:46.117Z,1005.74
2023-05-04T13:13:44.547Z,1005.76
2023-05-04T13:14:44.508Z,1005.83
2023-05-04T13:15:44.666Z,1005.76
2023-05-04T13:16:51.067Z,1005.63
2023-05-04T13:17:44.564Z,1005.70
2023-05-04T13:18:44.465Z,1005.60
2023-05-04T13:19:44.460Z,1005.63
2023-05-04T13:20:44.445Z,1005.51
2023-05-04T13:21:44.431Z,1005.57
2023-05-04T13:22:44.432Z,1005.53
2023-05-04T13:23:44.411Z,1005.52
2023-05-04T13:24:44.412Z,1005.42
2023-05-04T13:25:44.383Z,1005.53
2023-05-04T13:26:44.383Z,1005.51
2023-05-04T13:27:49.398Z,1005.45
2023-05-04T13:28:44.361Z,1005.47
2023-05-04T13:29:44.369Z,1005.47
2023-05-04T13:30:44.337Z,1005.40
2023-05-04T13:31:45.359Z,1005.36
2023-05-04T13:32:44.398Z,1005.42
2023-05-04T13:33:44.300Z,1005.38
2023-05-04T13:34:44.294Z,1005.37
2023-05-04T13:35:44.282Z,1005.36
2023-05-04T13:36:44.278Z,1005.32
2023-05-04T13:37:44.256Z,1005.33
2023-05-04T13:38:49.275Z,1005.33
2023-05-04T13:39:44.231Z,1005.28
2023-05-04T13:40:44.269Z,1005.39
2023-05-04T13:41:44.215Z,1005.35
2023-05-04T13:42:44.210Z,1005.31
2023-05-04T13:43:44.201Z,1005.24
2023-05-04T13:44:44.180Z,1005.26
2023-05-04T13:45:44.211Z,1005.24
2023-05-04T13:46:44.277Z,1005.23
2023-05-04T13:47:44.158Z,1005.17
2023-05-04T13:48:44.130Z,1005.20
2023-05-04T13:49:49.146Z,1005.24
2023-05-04T13:50:44.126Z,1005.20
2023-05-04T13:51:44.151Z,1005.10
2023-05-04T13:52:44.102Z,1005.11
2023-05-04T13:53:44.077Z,1005.12
2023-05-04T13:54:44.084Z,1005.12
2023-05-04T13:55:44.068Z,1005.07
2023-05-04T13:56:44.045Z,1005.17
2023-05-04T13:57:44.029Z,1005.12
2023-05-04T13:58:44.046Z,1005.03
2023-05-04T13:59:54.638Z,1005.04
2023-05-04T14:00:50.169Z,1004.95
2023-05-04T14:01:43.993Z,1004.99
2023-05-04T14:02:44.038Z,1004.87
2023-05-04T14:03:43.962Z,1004.95
2023-05-04T14:04:44.490Z,1004.84
2023-05-04T14:05:43.950Z,1004.80
2023-05-04T14:06:43.929Z,1004.82
2023-05-04T14:07:43.925Z,1004.82
2023-05-04T14:08:43.908Z,1004.80
2023-05-04T14:09:43.905Z,1004.69
2023-05-04T14:10:43.912Z,1004.70
2023-05-04T14:11:48.912Z,1004.67
2023-05-04T14:12:43.889Z,1004.74
2023-05-04T14:13:43.853Z,1004.65
2023-05-04T14:14:43.845Z,1004.67
2023-05-04T14:15:43.828Z,1004.71
2023-05-04T14:16:43.906Z,1004.70
2023-05-04T14:17:43.894Z,1004.67
2023-05-04T14:18:43.803Z,1004.64
2023-05-04T14:19:43.794Z,1004.65
2023-05-04T14:20:43.784Z,1004.64
2023-05-04T14:21:43.756Z,1004.57
2023-05-04T14:22:48.802Z,1004.60
2023-05-04T14:23:43.748Z,1004.54
2023-05-04T14:24:43.728Z,1004.50
2023-05-04T14:25:43.709Z,1004.54
2023-05-04T14:26:43.712Z,1004.62
2023-05-04T14:27:43.690Z,1004.57
2023-05-04T14:28:43.725Z,1004.47
2023-05-04T14:29:44.847Z,1004.41
2023-05-04T14:30:43.656Z,1004.45
2023-05-04T14:31:43.663Z,1004.41
2023-05-04T14:32:43.734Z,1004.40
2023-05-04T14:33:48.657Z,1004.41
2023-05-04T14:34:43.629Z,1004.40
2023-05-04T14:35:44.337Z,1004.45
2023-05-04T14:36:43.591Z,1004.42
2023-05-04T14:37:43.615Z,1004.42
2023-05-04T14:38:43.576Z,1004.44
2023-05-04T14:39:43.556Z,1004.36
2023-05-04T14:40:43.568Z,1004.43
2023-05-04T14:41:43.533Z,1004.41
2023-05-04T14:42:43.532Z,1004.42
2023-05-04T14:43:43.508Z,1004.41
2023-05-04T14:44:48.526Z,1004.36
2023-05-04T14:45:43.515Z,1004.38
2023-05-04T14:46:43.491Z,1004.39
2023-05-04T14:47:43.489Z,1004.20
2023-05-04T14:48:43.478Z,1004.24
2023-05-04T14:49:43.484Z,1004.29
2023-05-04T14:50:43.439Z,1004.25
2023-05-04T14:51:43.421Z,1004.29
2023-05-04T14:52:43.442Z,1004.32
2023-05-04T14:53:43.399Z,1004.28
2023-05-04T14:54:43.393Z,1004.31
2023-05-04T14:55:48.399Z,1004.35
2023-05-04T14:56:43.376Z,1004.29
2023-05-04T14:57:43.363Z,1004.24
2023-05-04T14:58:43.364Z,1004.32
2023-05-04T14:59:43.337Z,1004.18
2023-05-04T15:00:43.323Z,1004.22
2023-05-04T15:01:43.382Z,1004.25
2023-05-04T15:02:43.392Z,1004.25
2023-05-04T15:03:43.371Z,1004.19
2023-05-04T15:04:43.312Z,1004.22
2023-05-04T15:05:43.270Z,1004.24
2023-05-04T15:06:48.286Z,1004.26
2023-05-04T15:07:43.244Z,1004.30
2023-05-04T15:08:43.243Z,1004.27
2023-05-04T15:09:43.217Z,1004.32
2023-05-04T15:10:43.245Z,1004.29
2023-05-04T15:11:43.208Z,1004.31
2023-05-04T15:12:43.233Z,1004.25
2023-05-04T15:13:43.188Z,1004.24
2023-05-04T15:14:43.165Z,1004.28
2023-05-04T15:15:43.200Z,1004.22
2023-05-04T15:16:43.197Z,1004.22
2023-05-04T15:17:48.222Z,1004.15
2023-05-04T15:18:43.124Z,1004.20
2023-05-04T15:19:43.112Z,1004.15
2023-05-04T15:20:43.128Z,1004.09
2023-05-04T15:21:43.103Z,1004.07
2023-05-04T15:22:43.098Z,1004.11
2023-05-04T15:23:43.064Z,1004.06
2023-05-04T15:24:43.053Z,1004.06
2023-05-04T15:25:43.053Z,1004.10
2023-05-04T15:26:43.037Z,1004.15
2023-05-04T15:27:43.026Z,1004.09
2023-05-04T15:28:48.071Z,1003.98
2023-05-04T15:29:43.004Z,1003.92
2023-05-04T15:30:42.989Z,1003.89
2023-05-04T15:31:43.000Z,1003.95
2023-05-04T15:32:42.998Z,1003.95
2023-05-04T15:33:42.951Z,1003.91
2023-05-04T15:34:50.635Z,1003.85
2023-05-04T15:35:43.928Z,1003.96
2023-05-04T15:36:42.935Z,1003.87
2023-05-04T15:37:42.906Z,1003.85
2023-05-04T15:38:42.905Z,1003.86
2023-05-04T15:39:47.912Z,1003.89
2023-05-04T15:40:42.883Z,1003.86
2023-05-04T15:41:42.872Z,1003.82
2023-05-04T15:42:42.854Z,1003.78
2023-05-04T15:43:42.835Z,1003.80
2023-05-04T15:44:42.836Z,1003.76
2023-05-04T15:45:42.814Z,1003.77
2023-05-04T15:46:42.845Z,1003.82
2023-05-04T15:47:42.841Z,1003.74
2023-05-04T15:48:42.783Z,1003.77
2023-05-04T15:49:42.776Z,1003.78
2023-05-04T15:50:47.783Z,1003.79
2023-05-04T15:51:42.747Z,1003.77
2023-05-04T15:52:42.769Z,1003.73
2023-05-04T15:53:42.732Z,1003.77
2023-05-04T15:54:42.734Z,1003.72
2023-05-04T15:55:42.702Z,1003.70
2023-05-04T15:56:42.695Z,1003.71
2023-05-04T15:57:42.695Z,1003.70
2023-05-04T15:58:42.714Z,1003.66
2023-05-04T15:59:42.661Z,1003.58
2023-05-04T16:00:42.660Z,1003.59
2023-05-04T16:01:47.765Z,1003.56
2023-05-04T16:02:42.723Z,1003.58
2023-05-04T16:03:42.657Z,1003.61
2023-05-04T16:04:42.670Z,1003.56
2023-05-04T16:05:42.589Z,1003.58
2023-05-04T16:06:42.579Z,1003.56
2023-05-04T16:07:42.583Z,1003.53
2023-05-04T16:08:42.611Z,1003.54
2023-05-04T16:09:42.545Z,1003.57
2023-05-04T16:10:42.556Z,1003.50
2023-05-04T16:11:42.523Z,1003.54
2023-05-04T16:12:47.571Z,1003.60
2023-05-04T16:13:42.502Z,1003.54
2023-05-04T16:14:42.493Z,1003.58
2023-05-04T16:15:42.478Z,1003.52
2023-05-04T16:16:42.518Z,1003.57
2023-05-04T16:17:42.491Z,1003.49
2023-05-04T16:18:42.457Z,1003.53
2023-05-04T16:19:42.438Z,1003.49
2023-05-04T16:20:42.434Z,1003.46
2023-05-04T16:21:42.435Z,1003.45
2023-05-04T16:22:42.428Z,1003.54
2023-05-04T16:23:47.427Z,1003.50
2023-05-04T16:24:42.383Z,1003.44
2023-05-04T16:25:42.365Z,1003.47
2023-05-04T16:26:42.394Z,1003.47
2023-05-04T16:27:42.353Z,1003.57
2023-05-04T16:28:42.373Z,1003.47
2023-05-04T16:29:42.322Z,1003.49
2023-05-04T16:30:42.412Z,1003.41
2023-05-04T16:31:42.367Z,1003.38
2023-05-04T16:32:42.362Z,1003.38
2023-05-04T16:33:42.281Z,1003.37
2023-05-04T16:34:47.324Z,1003.43
2023-05-04T16:35:42.270Z,1003.41
2023-05-04T16:36:42.258Z,1003.39
2023-05-04T16:37:42.235Z,1003.39
2023-05-04T16:38:42.255Z,1003.40
2023-05-04T16:39:42.242Z,1003.44
2023-05-04T16:40:42.246Z,1003.44
2023-05-04T16:41:42.197Z,1003.41
2023-05-04T16:42:42.208Z,1003.47
2023-05-04T16:43:42.182Z,1003.40
2023-05-04T16:44:42.160Z,1003.43
2023-05-04T16:45:47.193Z,1003.37
2023-05-04T16:46:42.182Z,1003.40
2023-05-04T16:47:42.249Z,1003.34
2023-05-04T16:48:42.115Z,1003.33
2023-05-04T16:49:42.100Z,1003.33
2023-05-04T16:50:42.117Z,1003.34
2023-05-04T16:51:42.090Z,1003.26
2023-05-04T16:52:42.085Z,1003.25
2023-05-04T16:53:42.064Z,1003.35
2023-05-04T16:54:42.057Z,1003.31
2023-05-04T16:55:42.063Z,1003.24
2023-05-04T16:56:47.054Z,1003.28
2023-05-04T16:57:42.017Z,1003.29
2023-05-04T16:58:42.029Z,1003.25
2023-05-04T16:59:41.995Z,1003.24
2023-05-04T17:00:41.979Z,1003.24
2023-05-04T17:01:42.021Z,1003.32
2023-05-04T17:02:42.334Z,1003.28
2023-05-04T17:03:42.048Z,1003.20
2023-05-04T17:04:41.963Z,1003.19
2023-05-04T17:05:41.920Z,1003.23
2023-05-04T17:06:41.916Z,1003.18